sensor_id;sensor_type;location;lat;lon;timestamp;pressure;altitude;pressure_sealevel;temperature;humidity
67803;BME280;54601;51.378;-1.342;2022-09-29T00:01:32;98726.96;;;19.47;31.16
67803;BME280;54601;51.378;-1.342;2022-09-29T00:03:57;98725.06;;;19.78;31.32
67803;BME280;54601;51.378;-1.342;2022-09-29T00:06:22;98724.01;;;20.00;31.12
67803;BME280;54601;51.378;-1.342;2022-09-29T00:08:47;98722.03;;;19.41;31.24
67803;BME280;54601;51.378;-1.342;2022-09-29T00:11:15;98716.98;;;19.51;31.07
67803;BME280;54601;51.378;-1.342;2022-09-29T00:13:38;98714.67;;;19.41;31.12
67803;BME280;54601;51.378;-1.342;2022-09-29T00:16:03;98713.55;;;19.46;31.04
67803;BME280;54601;51.378;-1.342;2022-09-29T00:18:29;98711.52;;;19.36;31.13
67803;BME280;54601;51.378;-1.342;2022-09-29T00:20:58;98708.10;;;19.36;31.14
67803;BME280;54601;51.378;-1.342;2022-09-29T00:23:18;98705.62;;;19.29;31.14
67803;BME280;54601;51.378;-1.342;2022-09-29T00:25:43;98704.42;;;19.33;31.17
67803;BME280;54601;51.378;-1.342;2022-09-29T00:28:08;98697.55;;;19.18;31.35
67803;BME280;54601;51.378;-1.342;2022-09-29T00:30:33;98695.57;;;19.39;31.14
67803;BME280;54601;51.378;-1.342;2022-09-29T00:32:58;98694.04;;;19.29;31.17
67803;BME280;54601;51.378;-1.342;2022-09-29T00:35:24;98692.63;;;19.53;30.68
67803;BME280;54601;51.378;-1.342;2022-09-29T00:37:48;98690.54;;;19.45;30.72
67803;BME280;54601;51.378;-1.342;2022-09-29T00:40:14;98686.10;;;19.35;31.02
67803;BME280;54601;51.378;-1.342;2022-09-29T00:42:39;98690.16;;;19.14;31.23
67803;BME280;54601;51.378;-1.342;2022-09-29T00:45:11;98694.17;;;19.32;31.31
67803;BME280;54601;51.378;-1.342;2022-09-29T00:47:31;98689.05;;;19.12;31.30
67803;BME280;54601;51.378;-1.342;2022-09-29T00:49:56;98692.99;;;19.39;31.25
67803;BME280;54601;51.378;-1.342;2022-09-29T00:52:23;98692.17;;;19.28;31.07
67803;BME280;54601;51.378;-1.342;2022-09-29T00:54:48;98691.17;;;19.90;30.71
67803;BME280;54601;51.378;-1.342;2022-09-29T00:57:10;98687.57;;;19.28;30.83
67803;BME280;54601;51.378;-1.342;2022-09-29T00:59:39;98683.42;;;19.25;30.94
67803;BME280;54601;51.378;-1.342;2022-09-29T01:01:59;98683.46;;;19.34;31.16
67803;BME280;54601;51.378;-1.342;2022-09-29T01:04:25;98687.63;;;19.26;30.75
67803;BME280;54601;51.378;-1.342;2022-09-29T01:06:52;98688.17;;;19.32;30.78
67803;BME280;54601;51.378;-1.342;2022-09-29T01:09:17;98686.95;;;19.29;30.76
67803;BME280;54601;51.378;-1.342;2022-09-29T01:11:40;98685.94;;;19.34;31.02
67803;BME280;54601;51.378;-1.342;2022-09-29T01:14:07;98688.43;;;19.43;31.26
67803;BME280;54601;51.378;-1.342;2022-09-29T01:16:31;98684.27;;;19.34;30.73
67803;BME280;54601;51.378;-1.342;2022-09-29T01:18:56;98687.08;;;19.06;31.13
67803;BME280;54601;51.378;-1.342;2022-09-29T01:21:27;98684.18;;;19.33;31.07
67803;BME280;54601;51.378;-1.342;2022-09-29T01:28:46;98680.66;;;19.05;30.96
67803;BME280;54601;51.378;-1.342;2022-09-29T01:31:10;98678.10;;;19.27;30.55
67803;BME280;54601;51.378;-1.342;2022-09-29T01:33:33;98679.98;;;19.06;30.97
67803;BME280;54601;51.378;-1.342;2022-09-29T01:35:56;98679.97;;;19.64;30.87
67803;BME280;54601;51.378;-1.342;2022-09-29T01:38:27;98678.29;;;18.98;31.10
67803;BME280;54601;51.378;-1.342;2022-09-29T01:40:49;98678.11;;;19.18;30.65
67803;BME280;54601;51.378;-1.342;2022-09-29T01:43:09;98680.32;;;19.13;30.77
67803;BME280;54601;51.378;-1.342;2022-09-29T01:45:33;98679.33;;;19.21;30.70
67803;BME280;54601;51.378;-1.342;2022-09-29T01:48:00;98676.14;;;19.69;30.55
67803;BME280;54601;51.378;-1.342;2022-09-29T01:50:26;98675.12;;;18.90;31.06
67803;BME280;54601;51.378;-1.342;2022-09-29T01:52:50;98674.91;;;18.95;30.95
67803;BME280;54601;51.378;-1.342;2022-09-29T01:55:16;98671.90;;;18.93;30.96
67803;BME280;54601;51.378;-1.342;2022-09-29T01:57:42;98673.66;;;19.06;30.79
67803;BME280;54601;51.378;-1.342;2022-09-29T02:00:05;98669.66;;;19.05;30.81
67803;BME280;54601;51.378;-1.342;2022-09-29T02:02:33;98671.54;;;18.98;30.99
67803;BME280;54601;51.378;-1.342;2022-09-29T02:04:55;98673.73;;;19.17;30.64
67803;BME280;54601;51.378;-1.342;2022-09-29T02:07:21;98674.63;;;19.34;31.07
67803;BME280;54601;51.378;-1.342;2022-09-29T02:09:46;98670.95;;;18.89;31.02
67803;BME280;54601;51.378;-1.342;2022-09-29T02:12:09;98669.82;;;18.99;30.94
67803;BME280;54601;51.378;-1.342;2022-09-29T02:14:38;98666.41;;;18.90;30.98
67803;BME280;54601;51.378;-1.342;2022-09-29T02:17:03;98665.75;;;18.87;31.04
67803;BME280;54601;51.378;-1.342;2022-09-29T02:19:25;98665.32;;;19.18;31.00
67803;BME280;54601;51.378;-1.342;2022-09-29T02:21:49;98660.87;;;18.91;30.94
67803;BME280;54601;51.378;-1.342;2022-09-29T02:24:14;98660.51;;;18.79;31.07
67803;BME280;54601;51.378;-1.342;2022-09-29T02:26:39;98661.02;;;19.40;30.94
67803;BME280;54601;51.378;-1.342;2022-09-29T02:29:06;98660.19;;;18.63;31.27
67803;BME280;54601;51.378;-1.342;2022-09-29T02:31:30;98658.97;;;19.09;31.10
67803;BME280;54601;51.378;-1.342;2022-09-29T02:33:54;98659.64;;;19.19;31.24
67803;BME280;54601;51.378;-1.342;2022-09-29T02:36:27;98657.40;;;18.98;30.87
67803;BME280;54601;51.378;-1.342;2022-09-29T02:38:52;98656.46;;;18.71;31.16
67803;BME280;54601;51.378;-1.342;2022-09-29T02:41:19;98658.56;;;18.70;31.25
67803;BME280;54601;51.378;-1.342;2022-09-29T02:43:47;98659.20;;;19.27;31.17
67803;BME280;54601;51.378;-1.342;2022-09-29T02:46:09;98658.50;;;18.64;31.31
67803;BME280;54601;51.378;-1.342;2022-09-29T02:48:38;98656.01;;;18.96;31.21
67803;BME280;54601;51.378;-1.342;2022-09-29T02:51:03;98657.70;;;18.79;31.51
67803;BME280;54601;51.378;-1.342;2022-09-29T02:53:24;98655.38;;;18.73;31.25
67803;BME280;54601;51.378;-1.342;2022-09-29T02:55:43;98656.21;;;18.90;31.27
67803;BME280;54601;51.378;-1.342;2022-09-29T02:58:09;98656.15;;;18.54;31.40
67803;BME280;54601;51.378;-1.342;2022-09-29T03:00:30;98660.13;;;18.54;31.51
67803;BME280;54601;51.378;-1.342;2022-09-29T03:02:55;98661.94;;;18.85;31.43
67803;BME280;54601;51.378;-1.342;2022-09-29T03:05:21;98662.00;;;19.13;31.35
67803;BME280;54601;51.378;-1.342;2022-09-29T03:07:45;98659.93;;;19.31;31.13
67803;BME280;54601;51.378;-1.342;2022-09-29T03:10:12;98659.61;;;19.01;31.25
67803;BME280;54601;51.378;-1.342;2022-09-29T03:12:36;98660.29;;;18.80;31.20
67803;BME280;54601;51.378;-1.342;2022-09-29T03:15:01;98661.04;;;18.99;30.97
67803;BME280;54601;51.378;-1.342;2022-09-29T03:17:26;98662.79;;;18.96;31.32
67803;BME280;54601;51.378;-1.342;2022-09-29T03:19:51;98664.01;;;18.88;31.13
67803;BME280;54601;51.378;-1.342;2022-09-29T03:22:16;98661.12;;;19.09;31.37
67803;BME280;54601;51.378;-1.342;2022-09-29T03:24:41;98661.36;;;18.71;31.33
67803;BME280;54601;51.378;-1.342;2022-09-29T03:27:07;98662.38;;;18.62;31.44
67803;BME280;54601;51.378;-1.342;2022-09-29T03:29:31;98667.09;;;18.55;31.53
67803;BME280;54601;51.378;-1.342;2022-09-29T03:31:57;98665.27;;;18.73;31.34
67803;BME280;54601;51.378;-1.342;2022-09-29T03:34:22;98670.54;;;18.96;31.60
67803;BME280;54601;51.378;-1.342;2022-09-29T03:36:47;98670.58;;;18.56;31.51
67803;BME280;54601;51.378;-1.342;2022-09-29T03:39:12;98671.25;;;18.45;31.67
67803;BME280;54601;51.378;-1.342;2022-09-29T03:41:37;98669.56;;;18.55;31.57
67803;BME280;54601;51.378;-1.342;2022-09-29T03:44:02;98665.03;;;18.45;31.69
67803;BME280;54601;51.378;-1.342;2022-09-29T03:46:27;98666.01;;;18.70;31.71
67803;BME280;54601;51.378;-1.342;2022-09-29T03:48:54;98663.89;;;19.05;31.55
67803;BME280;54601;51.378;-1.342;2022-09-29T03:51:18;98660.98;;;18.88;31.51
67803;BME280;54601;51.378;-1.342;2022-09-29T03:53:43;98660.71;;;19.08;31.51
67803;BME280;54601;51.378;-1.342;2022-09-29T03:56:08;98661.85;;;18.95;31.66
67803;BME280;54601;51.378;-1.342;2022-09-29T03:58:33;98660.84;;;18.98;31.67
67803;BME280;54601;51.378;-1.342;2022-09-29T04:00:58;98663.22;;;18.78;31.57
67803;BME280;54601;51.378;-1.342;2022-09-29T04:03:24;98661.34;;;18.79;31.63
67803;BME280;54601;51.378;-1.342;2022-09-29T04:05:49;98665.74;;;18.68;31.74
67803;BME280;54601;51.378;-1.342;2022-09-29T04:08:15;98667.59;;;18.90;31.77
67803;BME280;54601;51.378;-1.342;2022-09-29T04:10:40;98667.43;;;18.85;31.55
67803;BME280;54601;51.378;-1.342;2022-09-29T04:13:05;98666.64;;;18.83;31.84
67803;BME280;54601;51.378;-1.342;2022-09-29T04:15:30;98664.10;;;18.93;31.73
67803;BME280;54601;51.378;-1.342;2022-09-29T04:17:55;98664.61;;;18.48;31.62
67803;BME280;54601;51.378;-1.342;2022-09-29T04:20:20;98668.60;;;18.79;31.62
67803;BME280;54601;51.378;-1.342;2022-09-29T04:22:45;98673.47;;;18.91;31.72
67803;BME280;54601;51.378;-1.342;2022-09-29T04:25:10;98676.34;;;19.03;31.56
67803;BME280;54601;51.378;-1.342;2022-09-29T04:27:35;98677.91;;;18.90;31.76
67803;BME280;54601;51.378;-1.342;2022-09-29T04:30:00;98678.13;;;18.57;31.92
67803;BME280;54601;51.378;-1.342;2022-09-29T04:32:25;98680.11;;;18.61;32.12
67803;BME280;54601;51.378;-1.342;2022-09-29T04:34:51;98677.05;;;18.40;31.82
67803;BME280;54601;51.378;-1.342;2022-09-29T04:37:16;98677.15;;;18.92;31.75
67803;BME280;54601;51.378;-1.342;2022-09-29T04:39:41;98678.55;;;18.86;31.81
67803;BME280;54601;51.378;-1.342;2022-09-29T04:42:06;98678.73;;;18.79;31.92
67803;BME280;54601;51.378;-1.342;2022-09-29T04:44:31;98682.63;;;18.90;31.77
67803;BME280;54601;51.378;-1.342;2022-09-29T04:46:56;98684.78;;;18.48;32.01
67803;BME280;54601;51.378;-1.342;2022-09-29T04:49:22;98685.94;;;18.58;31.95
67803;BME280;54601;51.378;-1.342;2022-09-29T04:51:47;98686.56;;;18.87;31.83
67803;BME280;54601;51.378;-1.342;2022-09-29T04:54:12;98688.59;;;18.86;31.54
67803;BME280;54601;51.378;-1.342;2022-09-29T04:56:37;98692.07;;;18.77;31.69
67803;BME280;54601;51.378;-1.342;2022-09-29T04:59:02;98699.16;;;19.15;31.54
67803;BME280;54601;51.378;-1.342;2022-09-29T05:01:27;98702.10;;;18.77;31.68
67803;BME280;54601;51.378;-1.342;2022-09-29T05:03:52;98701.77;;;18.74;31.77
67803;BME280;54601;51.378;-1.342;2022-09-29T05:06:17;98701.54;;;19.10;31.61
67803;BME280;54601;51.378;-1.342;2022-09-29T05:08:43;98702.78;;;19.13;31.52
67803;BME280;54601;51.378;-1.342;2022-09-29T05:11:09;98703.98;;;18.69;31.84
67803;BME280;54601;51.378;-1.342;2022-09-29T05:13:33;98701.54;;;18.25;32.04
67803;BME280;54601;51.378;-1.342;2022-09-29T05:15:58;98700.31;;;18.81;31.97
67803;BME280;54601;51.378;-1.342;2022-09-29T05:18:24;98699.87;;;18.77;32.04
67803;BME280;54601;51.378;-1.342;2022-09-29T05:20:49;98701.37;;;18.88;31.93
67803;BME280;54601;51.378;-1.342;2022-09-29T05:23:14;98704.01;;;18.53;32.08
67803;BME280;54601;51.378;-1.342;2022-09-29T05:25:39;98705.02;;;19.07;31.74
67803;BME280;54601;51.378;-1.342;2022-09-29T05:28:04;98704.40;;;18.87;31.96
67803;BME280;54601;51.378;-1.342;2022-09-29T05:30:29;98705.27;;;18.70;31.89
67803;BME280;54601;51.378;-1.342;2022-09-29T05:32:54;98704.67;;;18.98;31.88
67803;BME280;54601;51.378;-1.342;2022-09-29T05:35:19;98702.37;;;18.79;32.05
67803;BME280;54601;51.378;-1.342;2022-09-29T05:37:45;98709.31;;;19.00;31.93
67803;BME280;54601;51.378;-1.342;2022-09-29T05:40:10;98710.81;;;18.95;32.11
67803;BME280;54601;51.378;-1.342;2022-09-29T05:42:35;98714.64;;;19.08;32.01
67803;BME280;54601;51.378;-1.342;2022-09-29T05:45:00;98718.99;;;18.50;32.27
67803;BME280;54601;51.378;-1.342;2022-09-29T05:47:25;98720.44;;;18.78;32.61
67803;BME280;54601;51.378;-1.342;2022-09-29T05:49:50;98724.99;;;18.90;32.51
67803;BME280;54601;51.378;-1.342;2022-09-29T05:52:16;98727.82;;;18.72;32.42
67803;BME280;54601;51.378;-1.342;2022-09-29T05:54:41;98728.52;;;19.03;32.43
67803;BME280;54601;51.378;-1.342;2022-09-29T05:57:06;98729.75;;;18.77;32.60
67803;BME280;54601;51.378;-1.342;2022-09-29T05:59:31;98728.38;;;18.68;32.33
67803;BME280;54601;51.378;-1.342;2022-09-29T06:01:56;98730.73;;;18.70;32.28
67803;BME280;54601;51.378;-1.342;2022-09-29T06:04:21;98733.06;;;19.01;32.22
67803;BME280;54601;51.378;-1.342;2022-09-29T06:06:47;98734.64;;;19.16;32.41
67803;BME280;54601;51.378;-1.342;2022-09-29T06:09:12;98735.81;;;19.23;32.31
67803;BME280;54601;51.378;-1.342;2022-09-29T06:11:37;98734.91;;;19.15;32.49
67803;BME280;54601;51.378;-1.342;2022-09-29T06:14:02;98738.57;;;19.16;32.45
67803;BME280;54601;51.378;-1.342;2022-09-29T06:16:30;98742.73;;;18.69;32.54
67803;BME280;54601;51.378;-1.342;2022-09-29T06:18:53;98745.67;;;18.93;32.54
67803;BME280;54601;51.378;-1.342;2022-09-29T06:21:19;98749.74;;;19.00;32.52
67803;BME280;54601;51.378;-1.342;2022-09-29T06:23:43;98752.85;;;18.88;32.77
67803;BME280;54601;51.378;-1.342;2022-09-29T06:26:11;98753.84;;;19.09;32.83
67803;BME280;54601;51.378;-1.342;2022-09-29T06:28:34;98753.87;;;18.95;32.65
67803;BME280;54601;51.378;-1.342;2022-09-29T06:30:59;98758.01;;;18.62;32.86
67803;BME280;54601;51.378;-1.342;2022-09-29T06:33:24;98761.52;;;18.93;32.82
67803;BME280;54601;51.378;-1.342;2022-09-29T06:35:49;98763.70;;;18.98;32.66
67803;BME280;54601;51.378;-1.342;2022-09-29T06:38:14;98765.42;;;18.95;32.93
67803;BME280;54601;51.378;-1.342;2022-09-29T06:40:39;98769.60;;;18.64;33.00
67803;BME280;54601;51.378;-1.342;2022-09-29T06:43:04;98768.46;;;19.26;32.78
67803;BME280;54601;51.378;-1.342;2022-09-29T06:45:29;98773.41;;;19.29;33.08
67803;BME280;54601;51.378;-1.342;2022-09-29T06:47:57;98776.20;;;19.03;33.10
67803;BME280;54601;51.378;-1.342;2022-09-29T06:50:19;98777.72;;;19.32;32.84
67803;BME280;54601;51.378;-1.342;2022-09-29T06:52:45;98779.79;;;19.28;32.92
67803;BME280;54601;51.378;-1.342;2022-09-29T06:55:10;98783.28;;;18.82;32.93
67803;BME280;54601;51.378;-1.342;2022-09-29T06:57:35;98782.40;;;19.00;33.02
67803;BME280;54601;51.378;-1.342;2022-09-29T07:00:00;98785.72;;;18.81;33.21
67803;BME280;54601;51.378;-1.342;2022-09-29T07:02:25;98788.32;;;19.15;32.99
67803;BME280;54601;51.378;-1.342;2022-09-29T07:04:50;98788.17;;;19.35;33.22
67803;BME280;54601;51.378;-1.342;2022-09-29T07:07:15;98791.27;;;18.77;33.36
67803;BME280;54601;51.378;-1.342;2022-09-29T07:09:41;98792.36;;;19.05;33.28
67803;BME280;54601;51.378;-1.342;2022-09-29T07:12:06;98789.62;;;19.29;33.37
67803;BME280;54601;51.378;-1.342;2022-09-29T07:14:31;98792.68;;;18.87;33.31
67803;BME280;54601;51.378;-1.342;2022-09-29T07:16:56;98793.28;;;18.92;33.28
67803;BME280;54601;51.378;-1.342;2022-09-29T07:19:21;98795.26;;;19.43;33.27
67803;BME280;54601;51.378;-1.342;2022-09-29T07:21:47;98793.95;;;19.17;33.32
67803;BME280;54601;51.378;-1.342;2022-09-29T07:24:11;98797.90;;;18.96;33.27
67803;BME280;54601;51.378;-1.342;2022-09-29T07:26:37;98799.72;;;19.01;33.23
67803;BME280;54601;51.378;-1.342;2022-09-29T07:29:02;98802.30;;;18.88;33.32
67803;BME280;54601;51.378;-1.342;2022-09-29T07:31:27;98806.40;;;19.06;33.18
67803;BME280;54601;51.378;-1.342;2022-09-29T07:33:52;98809.12;;;19.06;33.20
67803;BME280;54601;51.378;-1.342;2022-09-29T07:36:19;98819.71;;;19.23;33.31
67803;BME280;54601;51.378;-1.342;2022-09-29T07:38:45;98829.17;;;19.18;33.36
67803;BME280;54601;51.378;-1.342;2022-09-29T07:41:09;98831.97;;;19.00;33.28
67803;BME280;54601;51.378;-1.342;2022-09-29T07:43:33;98829.63;;;19.06;33.16
67803;BME280;54601;51.378;-1.342;2022-09-29T07:45:58;98831.51;;;19.09;33.14
67803;BME280;54601;51.378;-1.342;2022-09-29T07:48:23;98833.26;;;19.33;33.12
67803;BME280;54601;51.378;-1.342;2022-09-29T07:50:48;98835.23;;;19.57;33.12
67803;BME280;54601;51.378;-1.342;2022-09-29T07:53:13;98839.33;;;19.27;33.29
67803;BME280;54601;51.378;-1.342;2022-09-29T07:55:38;98846.28;;;19.09;33.13
67803;BME280;54601;51.378;-1.342;2022-09-29T07:58:03;98851.05;;;19.55;33.22
67803;BME280;54601;51.378;-1.342;2022-09-29T08:00:29;98853.20;;;19.68;32.17
67803;BME280;54601;51.378;-1.342;2022-09-29T08:02:53;98860.30;;;19.77;32.28
67803;BME280;54601;51.378;-1.342;2022-09-29T08:05:19;98866.01;;;19.47;32.60
67803;BME280;54601;51.378;-1.342;2022-09-29T08:07:44;98868.04;;;19.18;33.10
67803;BME280;54601;51.378;-1.342;2022-09-29T08:10:09;98872.10;;;19.19;33.07
67803;BME280;54601;51.378;-1.342;2022-09-29T08:12:34;98877.88;;;19.20;33.14
67803;BME280;54601;51.378;-1.342;2022-09-29T08:14:59;98882.11;;;19.22;33.02
67803;BME280;54601;51.378;-1.342;2022-09-29T08:17:24;98886.29;;;19.24;33.03
67803;BME280;54601;51.378;-1.342;2022-09-29T08:19:49;98886.11;;;19.30;32.98
67803;BME280;54601;51.378;-1.342;2022-09-29T08:22:15;98890.07;;;19.33;32.95
67803;BME280;54601;51.378;-1.342;2022-09-29T08:24:40;98893.34;;;19.44;32.84
67803;BME280;54601;51.378;-1.342;2022-09-29T08:27:05;98894.31;;;19.36;32.99
67803;BME280;54601;51.378;-1.342;2022-09-29T08:29:30;98897.68;;;19.41;32.86
67803;BME280;54601;51.378;-1.342;2022-09-29T08:31:55;98899.27;;;19.63;32.90
67803;BME280;54601;51.378;-1.342;2022-09-29T08:34:20;98904.93;;;19.74;32.82
67803;BME280;54601;51.378;-1.342;2022-09-29T08:36:45;98907.51;;;19.51;32.71
67803;BME280;54601;51.378;-1.342;2022-09-29T08:39:11;98908.26;;;19.47;32.86
67803;BME280;54601;51.378;-1.342;2022-09-29T08:41:45;98913.68;;;19.76;32.75
67803;BME280;54601;51.378;-1.342;2022-09-29T08:44:04;98916.93;;;19.55;32.71
67803;BME280;54601;51.378;-1.342;2022-09-29T08:46:29;98915.92;;;19.52;32.77
67803;BME280;54601;51.378;-1.342;2022-09-29T08:48:51;98918.23;;;19.44;32.84
67803;BME280;54601;51.378;-1.342;2022-09-29T08:51:23;98918.09;;;19.42;32.88
67803;BME280;54601;51.378;-1.342;2022-09-29T08:53:44;98919.93;;;19.40;32.91
67803;BME280;54601;51.378;-1.342;2022-09-29T08:56:12;98918.67;;;19.60;32.99
67803;BME280;54601;51.378;-1.342;2022-09-29T08:58:33;98915.93;;;19.66;32.93
67803;BME280;54601;51.378;-1.342;2022-09-29T09:01:05;98921.43;;;19.36;33.01
67803;BME280;54601;51.378;-1.342;2022-09-29T09:03:37;98922.31;;;19.52;32.84
67803;BME280;54601;51.378;-1.342;2022-09-29T09:06:00;98925.39;;;19.38;33.03
67803;BME280;54601;51.378;-1.342;2022-09-29T09:08:18;98929.97;;;19.96;32.89
67803;BME280;54601;51.378;-1.342;2022-09-29T09:10:41;98930.16;;;19.30;33.33
67803;BME280;54601;51.378;-1.342;2022-09-29T09:13:16;98934.23;;;19.68;33.44
67803;BME280;54601;51.378;-1.342;2022-09-29T09:15:36;98939.22;;;19.11;33.60
67803;BME280;54601;51.378;-1.342;2022-09-29T09:18:04;98939.69;;;19.44;33.60
67803;BME280;54601;51.378;-1.342;2022-09-29T09:20:28;98943.86;;;19.48;33.42
67803;BME280;54601;51.378;-1.342;2022-09-29T09:22:49;98945.37;;;19.56;33.17
67803;BME280;54601;51.378;-1.342;2022-09-29T09:25:18;98950.74;;;19.66;33.14
67803;BME280;54601;51.378;-1.342;2022-09-29T09:27:38;98951.96;;;19.51;33.56
67803;BME280;54601;51.378;-1.342;2022-09-29T09:30:03;98959.55;;;19.43;33.51
67803;BME280;54601;51.378;-1.342;2022-09-29T09:32:26;98962.26;;;19.64;33.15
67803;BME280;54601;51.378;-1.342;2022-09-29T09:34:53;98963.01;;;19.67;33.11
67803;BME280;54601;51.378;-1.342;2022-09-29T09:37:16;98965.98;;;19.65;33.16
67803;BME280;54601;51.378;-1.342;2022-09-29T09:39:43;98969.59;;;19.70;33.13
67803;BME280;54601;51.378;-1.342;2022-09-29T09:42:07;98969.93;;;19.64;33.50
67803;BME280;54601;51.378;-1.342;2022-09-29T09:44:33;98972.02;;;19.64;33.42
67803;BME280;54601;51.378;-1.342;2022-09-29T09:46:55;98972.28;;;19.64;33.47
67803;BME280;54601;51.378;-1.342;2022-09-29T09:49:22;98974.94;;;19.72;33.21
67803;BME280;54601;51.378;-1.342;2022-09-29T09:51:48;98985.28;;;19.92;32.98
67803;BME280;54601;51.378;-1.342;2022-09-29T09:54:12;98990.66;;;19.97;32.92
67803;BME280;54601;51.378;-1.342;2022-09-29T09:56:48;98994.11;;;19.91;33.16
67803;BME280;54601;51.378;-1.342;2022-09-29T09:59:10;98993.13;;;19.83;33.33
67803;BME280;54601;51.378;-1.342;2022-09-29T10:01:24;98998.88;;;19.84;33.41
67803;BME280;54601;51.378;-1.342;2022-09-29T10:03:49;98997.11;;;19.78;33.41
67803;BME280;54601;51.378;-1.342;2022-09-29T10:06:14;98994.92;;;19.57;33.44
67803;BME280;54601;51.378;-1.342;2022-09-29T10:08:40;98994.32;;;19.96;33.21
67803;BME280;54601;51.378;-1.342;2022-09-29T10:11:14;98996.32;;;19.94;33.13
67803;BME280;54601;51.378;-1.342;2022-09-29T10:13:30;98997.23;;;20.03;33.03
67803;BME280;54601;51.378;-1.342;2022-09-29T10:15:57;98997.20;;;20.05;33.07
67803;BME280;54601;51.378;-1.342;2022-09-29T10:18:24;98993.95;;;19.95;33.36
67803;BME280;54601;51.378;-1.342;2022-09-29T10:20:44;98995.70;;;19.99;33.25
67803;BME280;54601;51.378;-1.342;2022-09-29T10:23:18;98998.63;;;19.78;33.31
67803;BME280;54601;51.378;-1.342;2022-09-29T10:25:36;99002.37;;;19.97;33.29
67803;BME280;54601;51.378;-1.342;2022-09-29T10:28:00;99003.36;;;19.83;33.15
67803;BME280;54601;51.378;-1.342;2022-09-29T10:30:30;99002.65;;;20.15;33.00
67803;BME280;54601;51.378;-1.342;2022-09-29T10:32:56;99006.06;;;19.90;33.04
67803;BME280;54601;51.378;-1.342;2022-09-29T10:35:17;99009.54;;;19.91;32.97
67803;BME280;54601;51.378;-1.342;2022-09-29T10:37:42;99014.04;;;20.22;32.88
67803;BME280;54601;51.378;-1.342;2022-09-29T10:40:14;99015.33;;;20.05;32.94
67803;BME280;54601;51.378;-1.342;2022-09-29T10:42:33;99015.17;;;20.08;33.32
67803;BME280;54601;51.378;-1.342;2022-09-29T10:45:01;99014.30;;;20.08;33.32
67803;BME280;54601;51.378;-1.342;2022-09-29T10:47:21;99020.20;;;20.11;33.30
67803;BME280;54601;51.378;-1.342;2022-09-29T10:49:45;99024.27;;;20.18;33.15
67803;BME280;54601;51.378;-1.342;2022-09-29T10:52:17;99027.97;;;20.02;33.24
67803;BME280;54601;51.378;-1.342;2022-09-29T10:54:37;99029.48;;;20.03;33.33
67803;BME280;54601;51.378;-1.342;2022-09-29T10:59:26;99037.02;;;20.01;33.23
67803;BME280;54601;51.378;-1.342;2022-09-29T11:01:53;99042.36;;;19.98;33.45
67803;BME280;54601;51.378;-1.342;2022-09-29T11:04:18;99042.01;;;20.22;33.40
67803;BME280;54601;51.378;-1.342;2022-09-29T11:06:40;99043.77;;;19.80;33.19
67803;BME280;54601;51.378;-1.342;2022-09-29T11:11:32;99041.35;;;20.27;33.33
67803;BME280;54601;51.378;-1.342;2022-09-29T11:13:57;99041.40;;;20.04;33.43
67803;BME280;54601;51.378;-1.342;2022-09-29T11:16:27;99044.19;;;20.33;33.37
67803;BME280;54601;51.378;-1.342;2022-09-29T11:18:49;99052.36;;;20.31;33.24
67803;BME280;54601;51.378;-1.342;2022-09-29T11:23:40;99062.37;;;20.36;33.34
67803;BME280;54601;51.378;-1.342;2022-09-29T11:26:08;99065.98;;;20.37;33.25
67803;BME280;54601;51.378;-1.342;2022-09-29T11:28:35;99071.13;;;20.23;33.06
67803;BME280;54601;51.378;-1.342;2022-09-29T11:31:00;99080.02;;;20.44;33.09
67803;BME280;54601;51.378;-1.342;2022-09-29T11:33:25;99083.61;;;20.02;32.96
67803;BME280;54601;51.378;-1.342;2022-09-29T11:35:48;99087.62;;;20.20;33.06
67803;BME280;54601;51.378;-1.342;2022-09-29T11:38:19;99091.91;;;20.56;32.88
67803;BME280;54601;51.378;-1.342;2022-09-29T11:40:38;99096.28;;;20.35;32.85
67803;BME280;54601;51.378;-1.342;2022-09-29T11:43:05;99099.33;;;20.33;32.85
67803;BME280;54601;51.378;-1.342;2022-09-29T11:45:29;99104.62;;;20.57;32.80
67803;BME280;54601;51.378;-1.342;2022-09-29T11:50:23;99110.60;;;20.55;32.83
67803;BME280;54601;51.378;-1.342;2022-09-29T11:52:48;99115.27;;;20.26;32.92
67803;BME280;54601;51.378;-1.342;2022-09-29T11:55:13;99120.99;;;20.33;32.84
67803;BME280;54601;51.378;-1.342;2022-09-29T11:57:38;99124.42;;;20.30;32.84
67803;BME280;54601;51.378;-1.342;2022-09-29T12:00:02;99122.37;;;20.23;32.93
67803;BME280;54601;51.378;-1.342;2022-09-29T12:02:32;99124.97;;;20.25;32.87
67803;BME280;54601;51.378;-1.342;2022-09-29T12:04:49;99127.78;;;20.20;32.95
67803;BME280;54601;51.378;-1.342;2022-09-29T12:07:18;99127.95;;;20.39;32.98
67803;BME280;54601;51.378;-1.342;2022-09-29T12:09:43;99131.87;;;20.32;32.79
67803;BME280;54601;51.378;-1.342;2022-09-29T12:12:06;99132.56;;;20.48;32.85
67803;BME280;54601;51.378;-1.342;2022-09-29T12:14:29;99133.45;;;20.29;32.79
67803;BME280;54601;51.378;-1.342;2022-09-29T12:16:51;99140.96;;;20.51;32.77
67803;BME280;54601;51.378;-1.342;2022-09-29T12:19:17;99143.59;;;20.34;32.69
67803;BME280;54601;51.378;-1.342;2022-09-29T12:21:41;99146.40;;;20.39;32.62
67803;BME280;54601;51.378;-1.342;2022-09-29T12:24:11;99149.50;;;20.47;32.77
67803;BME280;54601;51.378;-1.342;2022-09-29T12:26:32;99153.34;;;20.25;32.77
67803;BME280;54601;51.378;-1.342;2022-09-29T12:29:02;99155.88;;;20.47;32.75
67803;BME280;54601;51.378;-1.342;2022-09-29T12:31:27;99153.62;;;20.53;32.69
67803;BME280;54601;51.378;-1.342;2022-09-29T12:33:53;99154.86;;;20.26;32.74
67803;BME280;54601;51.378;-1.342;2022-09-29T12:36:24;99154.19;;;20.48;32.74
67803;BME280;54601;51.378;-1.342;2022-09-29T12:38:42;99151.39;;;20.04;32.69
67803;BME280;54601;51.378;-1.342;2022-09-29T12:41:11;99152.67;;;20.27;32.71
67803;BME280;54601;51.378;-1.342;2022-09-29T12:43:40;99154.35;;;20.44;32.80
67803;BME280;54601;51.378;-1.342;2022-09-29T12:46:05;99157.67;;;20.10;32.93
67803;BME280;54601;51.378;-1.342;2022-09-29T12:48:37;99159.47;;;20.24;32.77
67803;BME280;54601;51.378;-1.342;2022-09-29T12:50:58;99160.60;;;20.21;32.80
67803;BME280;54601;51.378;-1.342;2022-09-29T12:53:21;99162.11;;;20.20;32.83